createdAt,value
2019-04-22T00:02:22.724Z,15.11
2019-04-22T00:05:04.762Z,15.10
2019-04-22T00:07:48.256Z,15.14
2019-04-22T00:10:26.123Z,15.12
2019-04-22T00:12:52.938Z,15.12
2019-04-22T00:15:20.255Z,15.03
2019-04-22T00:18:11.616Z,15.04
2019-04-22T00:20:31.027Z,15.04
2019-04-22T00:22:59.428Z,14.97
2019-04-22T00:25:36.618Z,14.97
2019-04-22T00:28:08.892Z,14.94
2019-04-22T00:30:34.295Z,14.92
2019-04-22T00:33:11.671Z,14.99
2019-04-22T00:35:41.609Z,15.03
2019-04-22T00:38:17.668Z,14.93
2019-04-22T00:43:21.111Z,15.43
2019-04-22T00:45:49.278Z,15.43
2019-04-22T00:51:05.812Z,15.27
2019-04-22T00:53:35.422Z,15.10
2019-04-22T00:56:08.886Z,14.93
2019-04-22T00:58:37.927Z,14.93
2019-04-22T01:01:14.380Z,14.78
2019-04-22T01:06:17.307Z,14.69
2019-04-22T01:08:53.638Z,14.69
2019-04-22T01:11:24.752Z,14.72
2019-04-22T01:13:52.833Z,14.69
2019-04-22T01:16:22.705Z,14.60
2019-04-22T01:18:49.080Z,14.62
2019-04-22T01:21:28.786Z,14.59
2019-04-22T01:23:52.120Z,14.59
2019-04-22T01:26:22.931Z,14.55
2019-04-22T01:28:50.104Z,14.56
2019-04-22T01:31:15.350Z,14.64
2019-04-22T01:33:47.704Z,14.52
2019-04-22T01:36:33.919Z,14.47
2019-04-22T01:39:02.362Z,14.47
2019-04-22T01:41:48.439Z,14.47
2019-04-22T01:44:22.628Z,14.47
2019-04-22T01:46:47.741Z,14.41
2019-04-22T01:49:19.223Z,14.43
2019-04-22T01:54:26.657Z,14.38
2019-04-22T01:59:15.622Z,14.32
2019-04-22T02:04:32.486Z,14.29
2019-04-22T02:06:57.822Z,14.29
2019-04-22T02:09:31.377Z,14.29
2019-04-22T02:12:00.180Z,14.24
2019-04-22T02:14:34.111Z,14.24
2019-04-22T02:19:35.742Z,14.21
2019-04-22T02:22:12.898Z,14.17
2019-04-22T02:27:23.954Z,14.16
2019-04-22T02:32:28.244Z,14.11
2019-04-22T02:35:02.101Z,14.16
2019-04-22T02:37:23.516Z,14.18
2019-04-22T02:39:59.011Z,14.18
2019-04-22T02:42:24.635Z,14.11
2019-04-22T02:44:53.282Z,14.15
2019-04-22T02:50:07.443Z,14.15
2019-04-22T02:52:37.078Z,14.11
2019-04-22T02:55:11.597Z,14.12
2019-04-22T02:57:47.431Z,14.09
2019-04-22T03:00:12.231Z,14.09
2019-04-22T03:05:17.764Z,14.02
2019-04-22T03:07:50.669Z,13.94
2019-04-22T03:10:26.713Z,13.92
2019-04-22T03:12:48.989Z,13.92
2019-04-22T03:15:17.363Z,13.82
2019-04-22T03:17:51.641Z,13.82
2019-04-22T03:20:17.832Z,13.82
2019-04-22T03:23:00.152Z,13.77
2019-04-22T03:25:51.755Z,13.77
2019-04-22T03:28:14.433Z,13.77
2019-04-22T03:30:50.524Z,13.77
2019-04-22T03:33:11.745Z,13.75
2019-04-22T03:37:55.946Z,13.68
2019-04-22T03:40:36.754Z,13.65
2019-04-22T03:48:09.307Z,13.60
2019-04-22T03:51:03.258Z,13.60
2019-04-22T03:55:43.393Z,13.49
2019-04-22T03:58:01.811Z,13.54
2019-04-22T04:00:49.820Z,13.54
2019-04-22T04:03:20.753Z,13.45
2019-04-22T04:05:54.236Z,13.45
2019-04-22T04:13:23.360Z,13.41
2019-04-22T04:15:55.736Z,13.41
2019-04-22T04:18:39.275Z,13.44
2019-04-22T04:26:17.667Z,13.40
2019-04-22T04:31:22.275Z,13.41
2019-04-22T04:33:50.924Z,13.36
2019-04-22T04:36:11.546Z,13.32
2019-04-22T04:38:58.295Z,13.31
2019-04-22T04:41:24.923Z,13.38
2019-04-22T04:44:03.689Z,13.33
2019-04-22T04:51:33.017Z,13.37
2019-04-22T04:54:05.850Z,13.38
2019-04-22T04:59:19.469Z,13.42
2019-04-22T05:01:44.974Z,13.45
2019-04-22T05:06:52.092Z,13.41
2019-04-22T05:09:15.155Z,13.49
2019-04-22T05:12:01.755Z,13.58
2019-04-22T05:14:14.887Z,13.62
2019-04-22T05:19:15.794Z,13.83
2019-04-22T05:21:39.949Z,13.95
2019-04-22T05:24:19.828Z,13.95
2019-04-22T05:26:50.627Z,14.05
2019-04-22T05:29:19.657Z,14.05
2019-04-22T05:34:26.461Z,14.17
2019-04-22T05:36:55.392Z,14.26
2019-04-22T05:39:22.592Z,14.38
2019-04-22T05:41:59.285Z,14.38
2019-04-22T05:44:29.485Z,14.45
2019-04-22T05:47:01.177Z,14.55
2019-04-22T05:49:47.763Z,14.55
2019-04-22T05:52:09.672Z,14.71
2019-04-22T05:54:41.107Z,14.72
2019-04-22T05:57:14.384Z,14.79
2019-04-22T05:59:48.742Z,14.90
2019-04-22T06:04:44.920Z,15.09
2019-04-22T06:07:14.510Z,15.09
2019-04-22T06:09:53.283Z,15.18
2019-04-22T06:12:17.189Z,15.37
2019-04-22T06:14:54.260Z,15.37
2019-04-22T06:17:24.800Z,15.43
2019-04-22T06:19:57.663Z,15.59
2019-04-22T06:22:38.707Z,15.59
2019-04-22T06:25:01.273Z,15.75
2019-04-22T06:27:34.047Z,15.75
2019-04-22T06:30:04.943Z,15.89
2019-04-22T06:32:31.441Z,15.91
2019-04-22T06:35:18.505Z,16.01
2019-04-22T06:37:43.351Z,16.19
2019-04-22T06:40:16.412Z,16.19
2019-04-22T06:42:44.114Z,16.36
2019-04-22T06:45:18.877Z,16.36
2019-04-22T06:47:59.151Z,16.46
2019-04-22T06:50:32.861Z,16.67
2019-04-22T06:52:52.299Z,16.76
2019-04-22T06:55:23.281Z,16.76
2019-04-22T06:57:53.004Z,16.92
2019-04-22T07:03:26.919Z,17.00
2019-04-22T07:05:28.051Z,17.13
2019-04-22T07:08:04.409Z,17.13
2019-04-22T07:10:45.324Z,17.17
2019-04-22T07:13:01.389Z,17.28
2019-04-22T07:15:46.552Z,17.34
2019-04-22T07:18:11.428Z,17.62
2019-04-22T07:23:13.395Z,17.82
2019-04-22T07:25:41.183Z,17.98
2019-04-22T07:28:17.742Z,17.98
2019-04-22T07:30:44.631Z,18.10
2019-04-22T07:33:31.192Z,18.22
2019-04-22T07:36:12.532Z,18.40
2019-04-22T07:40:56.323Z,18.69
2019-04-22T07:43:53.075Z,18.69
2019-04-22T07:46:06.998Z,18.69
2019-04-22T07:48:37.639Z,18.84
2019-04-22T07:51:07.213Z,18.96
2019-04-22T07:53:45.553Z,18.92
2019-04-22T07:56:12.403Z,19.10
2019-04-22T07:58:42.071Z,19.22
2019-04-22T08:04:05.478Z,19.35
2019-04-22T08:06:24.664Z,19.48
2019-04-22T08:08:55.601Z,19.56
2019-04-22T08:14:01.558Z,19.66
2019-04-22T08:16:28.444Z,19.82
2019-04-22T08:19:04.129Z,19.85
2019-04-22T08:21:29.860Z,19.85
2019-04-22T08:24:06.575Z,19.96
2019-04-22T08:26:41.149Z,20.13
2019-04-22T08:29:27.682Z,20.22
2019-04-22T08:31:40.053Z,20.37
2019-04-22T08:34:13.711Z,20.40
2019-04-22T08:37:12.371Z,20.47
2019-04-22T08:39:21.751Z,20.48
2019-04-22T08:41:44.155Z,20.48
2019-04-22T08:44:27.850Z,20.54
2019-04-22T08:46:56.202Z,20.49
2019-04-22T08:49:30.690Z,20.49
2019-04-22T08:52:01.309Z,20.54
2019-04-22T08:54:31.255Z,20.63
2019-04-22T08:57:06.528Z,20.71
2019-04-22T08:59:27.965Z,20.87
2019-04-22T09:02:13.377Z,20.91
2019-04-22T09:04:39.126Z,20.93
2019-04-22T09:09:44.776Z,21.08
2019-04-22T09:12:32.996Z,21.22
2019-04-22T09:14:47.612Z,21.22
2019-04-22T09:17:52.470Z,21.23
2019-04-22T09:20:20.418Z,21.23
2019-04-22T09:22:56.806Z,21.35
2019-04-22T09:25:34.543Z,21.35
2019-04-22T09:28:14.879Z,21.33
2019-04-22T09:33:25.802Z,21.25
2019-04-22T09:40:58.453Z,22.12
2019-04-22T09:43:32.232Z,21.73
2019-04-22T09:45:57.505Z,21.90
2019-04-22T09:51:05.380Z,21.76
2019-04-22T09:53:46.783Z,21.68
2019-04-22T09:56:18.115Z,21.68
2019-04-22T09:58:44.856Z,21.77
2019-04-22T10:01:26.164Z,21.62
2019-04-22T10:03:56.221Z,21.90
2019-04-22T10:06:33.583Z,21.90
2019-04-22T10:09:12.701Z,21.80
2019-04-22T10:16:35.418Z,21.98
2019-04-22T10:19:01.003Z,22.09
2019-04-22T10:21:40.691Z,22.18
2019-04-22T10:24:03.441Z,22.18
2019-04-22T10:26:39.096Z,22.08
2019-04-22T10:29:13.679Z,22.00
2019-04-22T10:31:43.629Z,22.29
2019-04-22T10:33:57.956Z,22.29
2019-04-22T10:36:17.175Z,22.34
2019-04-22T10:38:48.573Z,22.53
2019-04-22T10:41:20.695Z,22.39
2019-04-22T10:43:51.034Z,22.62
2019-04-22T10:46:21.906Z,22.60
2019-04-22T10:48:55.838Z,22.60
2019-04-22T10:51:28.663Z,22.54
2019-04-22T10:53:59.635Z,22.54
2019-04-22T10:56:32.760Z,22.68
2019-04-22T10:59:02.596Z,22.82
2019-04-22T11:01:33.868Z,22.81
2019-04-22T11:04:03.428Z,22.92
2019-04-22T11:06:38.825Z,23.08
2019-04-22T11:09:06.739Z,23.08
2019-04-22T11:11:46.827Z,23.15
2019-04-22T11:14:08.718Z,23.17
2019-04-22T11:16:39.485Z,23.18
2019-04-22T11:19:17.348Z,23.18
2019-04-22T11:22:02.650Z,23.25
2019-04-22T11:24:20.981Z,23.39
2019-04-22T11:26:58.777Z,23.45
2019-04-22T11:29:29.883Z,23.40
2019-04-22T11:32:00.225Z,23.18
2019-04-22T11:34:30.987Z,23.28
2019-04-22T11:37:01.116Z,23.28
2019-04-22T11:39:36.485Z,23.40
2019-04-22T11:42:07.895Z,23.50
2019-04-22T11:44:39.167Z,23.56
2019-04-22T11:49:43.795Z,23.86
2019-04-22T11:52:16.415Z,24.42
2019-04-22T11:54:46.501Z,24.26
2019-04-22T11:57:17.265Z,24.24
2019-04-22T11:59:49.035Z,24.27
2019-04-22T12:02:23.299Z,24.23
2019-04-22T12:04:53.927Z,24.23
2019-04-22T12:07:23.735Z,24.19
2019-04-22T12:09:55.720Z,24.32
2019-04-22T12:12:27.799Z,24.08
2019-04-22T12:15:00.745Z,24.39
2019-04-22T12:17:31.883Z,24.53
2019-04-22T12:20:05.590Z,24.63
2019-04-22T12:22:35.667Z,24.62
2019-04-22T12:25:06.440Z,24.53
2019-04-22T12:27:45.441Z,24.79
2019-04-22T12:30:16.845Z,24.70
2019-04-22T12:32:48.560Z,24.84
2019-04-22T12:35:22.351Z,24.74
2019-04-22T12:37:58.747Z,24.61
2019-04-22T12:40:32.738Z,24.73
2019-04-22T12:42:57.640Z,24.85
2019-04-22T12:45:27.335Z,24.88
2019-04-22T12:47:57.938Z,24.89
2019-04-22T12:50:32.927Z,24.84
2019-04-22T12:53:03.657Z,24.92
2019-04-22T12:55:32.402Z,24.92
2019-04-22T12:58:05.469Z,24.52
2019-04-22T13:00:36.624Z,25.13
2019-04-22T13:03:11.683Z,25.13
2019-04-22T13:05:45.134Z,25.05
2019-04-22T13:08:15.812Z,25.05
2019-04-22T13:10:59.333Z,25.11
2019-04-22T13:13:25.092Z,25.11
2019-04-22T13:15:59.213Z,25.18
2019-04-22T13:18:42.777Z,24.96
2019-04-22T13:21:15.003Z,25.33
2019-04-22T13:23:44.668Z,25.45
2019-04-22T13:26:15.231Z,25.59
2019-04-22T13:28:45.203Z,25.44
2019-04-22T13:31:16.037Z,25.30
2019-04-22T13:33:51.283Z,25.35
2019-04-22T13:36:22.718Z,25.41
2019-04-22T13:38:53.390Z,25.55
2019-04-22T13:41:33.015Z,25.68
2019-04-22T13:43:58.178Z,25.66
2019-04-22T13:46:31.719Z,25.66
2019-04-22T13:49:38.266Z,25.66
2019-04-22T13:52:20.690Z,25.51
2019-04-22T13:54:48.951Z,25.66
2019-04-22T13:57:19.837Z,25.79
2019-04-22T13:59:36.878Z,26.12
2019-04-22T14:02:30.718Z,26.12
2019-04-22T14:05:01.085Z,25.96
2019-04-22T14:07:37.032Z,25.99
2019-04-22T14:10:08.710Z,25.91
2019-04-22T14:12:42.948Z,25.91
2019-04-22T14:15:13.821Z,25.98
2019-04-22T14:17:45.269Z,26.01
2019-04-22T14:20:15.740Z,25.87
2019-04-22T14:22:46.304Z,26.05
2019-04-22T14:25:16.718Z,26.02
2019-04-22T14:27:54.683Z,25.87
2019-04-22T14:30:20.881Z,25.87
2019-04-22T14:32:55.925Z,26.01
2019-04-22T14:35:29.062Z,26.01
2019-04-22T14:37:58.590Z,26.29
2019-04-22T14:40:32.417Z,26.11
2019-04-22T14:43:25.349Z,26.11
2019-04-22T14:48:41.989Z,26.02
2019-04-22T14:51:06.093Z,26.32
2019-04-22T14:53:39.369Z,26.32
2019-04-22T14:55:50.504Z,26.44
2019-04-22T14:58:24.696Z,25.96
2019-04-22T15:00:56.930Z,25.96
2019-04-22T15:03:33.412Z,25.81
2019-04-22T15:06:04.259Z,25.95
2019-04-22T15:08:35.053Z,25.95
2019-04-22T15:11:08.763Z,25.97
2019-04-22T15:13:39.111Z,25.97
2019-04-22T15:16:34.408Z,25.61
2019-04-22T15:19:12.079Z,25.90
2019-04-22T15:21:43.009Z,25.83
2019-04-22T15:24:29.433Z,25.83
2019-04-22T15:27:10.980Z,26.43
2019-04-22T15:29:41.149Z,26.43
2019-04-22T15:32:11.779Z,26.18
2019-04-22T15:34:41.611Z,26.28
2019-04-22T15:37:11.938Z,26.38
2019-04-22T15:39:41.615Z,26.21
2019-04-22T15:42:19.848Z,26.21
2019-04-22T15:44:44.193Z,26.22
2019-04-22T15:47:15.104Z,26.50
2019-04-22T15:49:45.878Z,26.50
2019-04-22T15:52:16.674Z,25.92
2019-04-22T15:54:49.951Z,26.18
2019-04-22T15:57:17.702Z,26.18
2019-04-22T16:00:02.315Z,26.37
2019-04-22T16:02:19.516Z,26.30
2019-04-22T16:04:50.629Z,26.66
2019-04-22T16:07:22.393Z,26.57
2019-04-22T16:09:51.922Z,26.19
2019-04-22T16:12:28.656Z,26.52
2019-04-22T16:14:56.841Z,26.65
2019-04-22T16:17:24.400Z,26.53
2019-04-22T16:19:55.267Z,26.75
2019-04-22T16:22:25.559Z,26.57
2019-04-22T16:25:15.278Z,26.70
2019-04-22T16:27:46.436Z,26.73
2019-04-22T16:30:17.255Z,26.57
2019-04-22T16:32:49.475Z,26.50
2019-04-22T16:35:18.902Z,26.75
2019-04-22T16:37:48.618Z,26.34
2019-04-22T16:40:25.014Z,26.34
2019-04-22T16:43:00.951Z,25.92
2019-04-22T16:45:31.647Z,25.79
2019-04-22T16:48:02.169Z,25.44
2019-04-22T16:50:35.018Z,24.98
2019-04-22T16:53:06.045Z,24.98
2019-04-22T16:55:36.907Z,24.53
2019-04-22T16:58:10.495Z,24.21
2019-04-22T17:00:44.868Z,24.28
2019-04-22T17:03:52.334Z,23.95
2019-04-22T17:06:35.309Z,23.95
2019-04-22T17:09:06.746Z,23.62
2019-04-22T17:11:38.032Z,23.41
2019-04-22T17:14:11.199Z,23.41
2019-04-22T17:16:44.328Z,23.16
2019-04-22T17:19:15.312Z,22.99
2019-04-22T17:21:45.648Z,22.81
2019-04-22T17:24:17.479Z,22.81
2019-04-22T17:26:48.452Z,22.60
2019-04-22T17:29:18.673Z,22.60
2019-04-22T17:31:56.913Z,22.11
2019-04-22T17:34:21.184Z,22.21
2019-04-22T17:36:51.055Z,21.99
2019-04-22T17:39:38.122Z,21.99
2019-04-22T17:42:22.475Z,21.78
2019-04-22T17:45:15.753Z,21.79
2019-04-22T17:48:09.874Z,21.72
2019-04-22T17:50:44.389Z,21.57
2019-04-22T17:53:23.007Z,21.48
2019-04-22T17:55:55.301Z,21.39
2019-04-22T17:58:20.649Z,21.16
2019-04-22T18:00:51.943Z,21.16
2019-04-22T18:03:21.281Z,21.02
2019-04-22T18:05:59.521Z,20.92
2019-04-22T18:08:45.978Z,20.83
2019-04-22T18:11:31.895Z,20.74
2019-04-22T18:13:55.024Z,20.46
2019-04-22T18:16:25.765Z,20.11
2019-04-22T18:18:52.831Z,20.11
2019-04-22T18:21:25.195Z,20.15
2019-04-22T18:23:52.886Z,20.07
2019-04-22T18:26:31.755Z,19.87
2019-04-22T18:29:07.417Z,19.87
2019-04-22T18:31:38.523Z,19.77
2019-04-22T18:34:10.153Z,19.64
2019-04-22T18:36:40.589Z,19.60
2019-04-22T18:39:23.540Z,19.48
2019-04-22T18:41:52.053Z,19.31
2019-04-22T18:44:35.283Z,19.31
2019-04-22T18:47:03.672Z,19.23
2019-04-22T18:49:37.395Z,19.08
2019-04-22T18:52:47.942Z,19.03
2019-04-22T18:55:55.598Z,18.77
2019-04-22T18:58:27.382Z,18.64
2019-04-22T19:00:48.389Z,18.64
2019-04-22T19:03:24.284Z,18.48
2019-04-22T19:06:24.792Z,18.48
2019-04-22T19:08:43.418Z,18.48
2019-04-22T19:11:26.713Z,18.34
2019-04-22T19:18:56.562Z,18.06
2019-04-22T19:21:19.677Z,17.98
2019-04-22T19:23:56.612Z,17.94
2019-04-22T19:26:41.234Z,17.94
2019-04-22T19:29:00.399Z,17.84
2019-04-22T19:31:31.342Z,17.77
2019-04-22T19:34:04.588Z,17.75
2019-04-22T19:36:40.904Z,17.58
2019-04-22T19:39:10.445Z,17.47
2019-04-22T19:41:42.008Z,17.47
2019-04-22T19:44:13.243Z,17.31
2019-04-22T19:46:55.733Z,17.31
2019-04-22T19:49:24.589Z,17.21
2019-04-22T19:52:01.433Z,17.21
2019-04-22T19:54:19.065Z,17.02
2019-04-22T19:56:40.239Z,17.02
2019-04-22T19:59:23.525Z,16.95
2019-04-22T20:02:28.608Z,16.95
2019-04-22T20:05:19.869Z,16.91
2019-04-22T20:07:45.827Z,16.83
2019-04-22T20:10:25.136Z,16.62
2019-04-22T20:13:07.635Z,16.62
2019-04-22T20:15:30.323Z,16.64
2019-04-22T20:18:31.674Z,16.55
2019-04-22T20:20:46.567Z,16.48
2019-04-22T20:23:14.273Z,16.35
2019-04-22T20:25:54.610Z,16.19
2019-04-22T20:28:39.183Z,16.19
2019-04-22T20:31:08.415Z,16.23
2019-04-22T20:33:48.188Z,16.18
2019-04-22T20:36:36.403Z,16.18
2019-04-22T20:38:39.975Z,16.10
2019-04-22T20:41:15.008Z,16.02
2019-04-22T20:43:52.536Z,15.94
2019-04-22T20:46:22.376Z,15.94
2019-04-22T20:48:56.866Z,15.87
2019-04-22T20:51:38.980Z,15.84
2019-04-22T20:54:05.547Z,15.75
2019-04-22T20:56:31.501Z,15.68
2019-04-22T20:59:04.581Z,15.70
2019-04-22T21:01:36.889Z,15.67
2019-04-22T21:03:57.666Z,15.61
2019-04-22T21:06:44.268Z,15.52
2019-04-22T21:09:18.357Z,15.44
2019-04-22T21:11:46.767Z,15.44
2019-04-22T21:14:17.152Z,15.39
2019-04-22T21:16:53.267Z,15.27
2019-04-22T21:19:27.691Z,15.25
2019-04-22T21:22:02.004Z,15.25
2019-04-22T21:24:29.384Z,15.15
2019-04-22T21:27:06.134Z,15.07
2019-04-22T21:29:33.657Z,15.07
2019-04-22T21:32:09.075Z,15.01
2019-04-22T21:34:43.669Z,15.01
2019-04-22T21:37:20.314Z,14.95
2019-04-22T21:39:44.759Z,14.81
2019-04-22T21:42:24.985Z,14.81
2019-04-22T21:44:49.713Z,14.76
2019-04-22T21:47:36.172Z,14.72
2019-04-22T21:50:21.390Z,14.74
2019-04-22T21:52:33.231Z,14.62
2019-04-22T21:55:14.488Z,14.62
2019-04-22T21:58:04.833Z,14.60
2019-04-22T22:03:10.908Z,14.46
2019-04-22T22:05:28.455Z,14.46
2019-04-22T22:07:56.843Z,14.37
2019-04-22T22:10:43.440Z,14.37
2019-04-22T22:13:13.839Z,14.17
2019-04-22T22:15:46.590Z,14.17
2019-04-22T22:18:16.433Z,14.15
2019-04-22T22:20:53.792Z,14.09
2019-04-22T22:23:28.889Z,14.03
2019-04-22T22:25:50.751Z,13.96
2019-04-22T22:28:33.420Z,13.96
2019-04-22T22:31:17.113Z,13.90
2019-04-22T22:33:26.911Z,13.90
2019-04-22T22:35:58.370Z,13.88
2019-04-22T22:38:27.333Z,13.85
2019-04-22T22:40:45.958Z,13.85
2019-04-22T22:43:25.968Z,13.76
2019-04-22T22:46:00.788Z,13.76
2019-04-22T22:48:48.133Z,13.76
2019-04-22T22:51:15.057Z,13.65
2019-04-22T22:54:06.345Z,13.56
2019-04-22T22:56:18.799Z,13.54
2019-04-22T22:58:52.480Z,13.59
2019-04-22T23:01:28.698Z,13.43
2019-04-22T23:06:32.942Z,13.30
2019-04-22T23:09:01.906Z,13.30
2019-04-22T23:11:45.718Z,13.31
2019-04-22T23:14:02.535Z,13.31
2019-04-22T23:16:22.030Z,13.16
2019-04-22T23:19:02.104Z,13.19
2019-04-22T23:21:39.119Z,13.03
2019-04-22T23:24:22.723Z,13.08
2019-04-22T23:27:11.724Z,13.04
2019-04-22T23:30:01.727Z,13.04
2019-04-22T23:32:31.789Z,12.98
2019-04-22T23:35:22.635Z,12.98
2019-04-22T23:37:52.638Z,12.92
2019-04-22T23:40:32.563Z,12.91
2019-04-22T23:43:05.480Z,12.93
2019-04-22T23:45:34.789Z,12.93
2019-04-22T23:48:01.206Z,12.91
2019-04-22T23:50:41.246Z,12.89
2019-04-22T23:53:46.043Z,12.89
2019-04-22T23:56:00.530Z,12.84
2019-04-22T23:58:47.659Z,12.84
